createdAt,value
2022-12-17T00:02:37.014Z,81.80
2022-12-17T00:05:17.041Z,77.65
2022-12-17T00:07:57.255Z,78.00
2022-12-17T00:10:37.335Z,76.20
2022-12-17T00:13:17.562Z,77.97
2022-12-17T00:16:07.704Z,75.07
2022-12-17T00:18:47.933Z,77.32
2022-12-17T00:21:27.969Z,74.28
2022-12-17T00:24:08.168Z,78.88
2022-12-17T00:26:48.291Z,73.82
2022-12-17T00:29:28.552Z,76.03
2022-12-17T00:32:08.711Z,70.05
2022-12-17T00:34:58.843Z,77.35
2022-12-17T00:37:38.922Z,76.40
2022-12-17T00:40:19.158Z,80.15
2022-12-17T00:42:59.287Z,81.22
2022-12-17T00:45:39.536Z,79.45
2022-12-17T00:48:19.816Z,74.25
2022-12-17T00:51:00.369Z,79.15
2022-12-17T00:53:40.043Z,76.88
2022-12-17T00:56:20.249Z,79.95
2022-12-17T00:59:00.191Z,79.22
2022-12-17T01:01:40.752Z,82.90
2022-12-17T01:04:20.554Z,84.22
2022-12-17T01:07:00.783Z,90.55
2022-12-17T01:09:40.890Z,88.43
2022-12-17T01:12:22.119Z,90.18
2022-12-17T01:15:11.208Z,86.72
2022-12-17T01:17:51.462Z,86.07
2022-12-17T01:20:31.580Z,90.35
2022-12-17T01:23:11.758Z,86.72
2022-12-17T01:25:51.891Z,89.68
2022-12-17T01:28:42.137Z,86.50
2022-12-17T01:31:35.310Z,92.07
2022-12-17T01:34:22.523Z,90.82
2022-12-17T01:37:02.564Z,93.68
2022-12-17T01:39:42.780Z,96.57
2022-12-17T01:42:32.840Z,97.22
2022-12-17T01:45:23.084Z,93.88
2022-12-17T01:48:13.184Z,113.45
2022-12-17T01:51:03.938Z,131.50
2022-12-17T01:53:53.533Z,130.32
2022-12-17T01:56:33.844Z,110.30
2022-12-17T01:59:23.854Z,103.70
2022-12-17T02:02:04.182Z,108.85
2022-12-17T02:04:44.232Z,105.15
2022-12-17T02:08:04.478Z,95.80
2022-12-17T02:11:04.612Z,94.82
2022-12-17T02:13:55.583Z,91.25
2022-12-17T02:16:44.949Z,80.57
2022-12-17T02:19:55.122Z,87.07
2022-12-17T02:23:15.301Z,81.30
2022-12-17T02:26:05.615Z,85.50
2022-12-17T02:28:55.600Z,74.50
2022-12-17T02:31:45.913Z,72.68
2022-12-17T02:34:25.944Z,73.05
2022-12-17T02:37:06.168Z,82.32
2022-12-17T02:39:46.270Z,93.95
2022-12-17T02:42:26.613Z,141.55
2022-12-17T02:45:17.017Z,177.40
2022-12-17T02:48:07.999Z,163.18
2022-12-17T02:50:57.043Z,141.10
2022-12-17T02:53:37.948Z,120.63
2022-12-17T02:56:27.391Z,116.75
2022-12-17T02:59:07.594Z,106.15
2022-12-17T03:01:47.810Z,101.63
2022-12-17T03:04:27.895Z,103.40
2022-12-17T03:07:08.022Z,111.60
2022-12-17T03:09:48.226Z,115.82
2022-12-17T03:12:28.295Z,121.15
2022-12-17T03:15:08.547Z,120.10
2022-12-17T03:17:48.624Z,121.50
2022-12-17T03:20:28.895Z,125.57
2022-12-17T03:23:19.001Z,120.00
2022-12-17T03:25:59.181Z,120.65
2022-12-17T03:28:39.306Z,122.32
2022-12-17T03:31:24.002Z,124.13
2022-12-17T03:34:09.643Z,124.18
2022-12-17T03:36:50.121Z,119.05
2022-12-17T03:39:29.987Z,121.85
2022-12-17T03:42:11.031Z,112.38
2022-12-17T03:45:00.306Z,106.25
2022-12-17T03:47:40.584Z,109.63
2022-12-17T03:50:20.649Z,125.22
2022-12-17T03:53:00.831Z,124.25
2022-12-17T03:55:40.956Z,119.63
2022-12-17T03:58:21.647Z,133.05
2022-12-17T04:03:41.539Z,139.03
2022-12-17T04:06:22.402Z,131.52
2022-12-17T04:09:01.737Z,133.50
2022-12-17T04:11:41.891Z,132.77
2022-12-17T04:14:22.098Z,133.85
2022-12-17T04:17:02.188Z,127.57
2022-12-17T04:19:42.426Z,123.72
2022-12-17T04:22:22.582Z,127.63
2022-12-17T04:25:02.822Z,132.35
2022-12-17T04:27:42.870Z,130.45
2022-12-17T04:30:23.033Z,137.65
2022-12-17T04:33:03.160Z,135.18
2022-12-17T04:35:43.489Z,143.68
2022-12-17T04:38:23.515Z,142.68
2022-12-17T04:41:03.710Z,144.60
2022-12-17T04:43:43.846Z,152.57
2022-12-17T04:46:24.073Z,153.27
2022-12-17T04:49:04.225Z,149.63
2022-12-17T04:51:44.371Z,154.80
2022-12-17T04:54:24.484Z,149.68
2022-12-17T04:57:04.794Z,151.90
2022-12-17T04:59:54.794Z,152.98
2022-12-17T05:02:38.299Z,156.65
2022-12-17T05:05:25.131Z,153.55
2022-12-17T05:08:16.030Z,162.15
2022-12-17T05:11:05.343Z,160.77
2022-12-17T05:13:45.448Z,157.63
2022-12-17T05:16:25.520Z,158.65
2022-12-17T05:19:05.681Z,150.38
2022-12-17T05:21:45.822Z,150.70
2022-12-17T05:24:26.299Z,148.98
2022-12-17T05:29:47.168Z,131.13
2022-12-17T05:32:36.641Z,146.55
2022-12-17T05:35:27.115Z,126.38
2022-12-17T05:40:47.189Z,123.18
2022-12-17T05:43:27.259Z,118.90
2022-12-17T05:46:08.232Z,113.63
2022-12-17T05:48:57.485Z,107.22
2022-12-17T05:51:39.103Z,111.40
2022-12-17T05:54:28.272Z,107.90
2022-12-17T05:57:08.061Z,118.82
2022-12-17T05:59:48.279Z,113.32
2022-12-17T06:02:42.474Z,110.38
2022-12-17T06:05:28.558Z,109.18
2022-12-17T06:08:28.810Z,114.07
2022-12-17T06:11:19.283Z,108.80
2022-12-17T06:16:49.249Z,100.72
2022-12-17T06:19:40.095Z,105.43
2022-12-17T06:22:29.802Z,96.60
2022-12-17T06:25:23.987Z,94.70
2022-12-17T06:28:19.853Z,92.88
2022-12-17T06:31:10.027Z,98.95
2022-12-17T06:33:50.047Z,92.40
2022-12-17T06:36:30.352Z,90.65
2022-12-17T06:39:10.383Z,77.30
2022-12-17T06:41:51.418Z,76.65
2022-12-17T06:44:40.729Z,83.20
2022-12-17T06:47:20.937Z,84.60
2022-12-17T06:50:01.739Z,83.88
2022-12-17T06:52:41.295Z,77.28
2022-12-17T06:55:21.379Z,75.00
2022-12-17T06:58:01.540Z,66.95
2022-12-17T07:00:41.730Z,68.10
2022-12-17T07:03:32.486Z,58.53
2022-12-17T07:06:22.019Z,72.95
2022-12-17T07:09:02.225Z,67.97
2022-12-17T07:11:42.343Z,65.25
2022-12-17T07:14:22.521Z,65.45
2022-12-17T07:17:02.745Z,63.47
2022-12-17T07:19:43.490Z,59.97
2022-12-17T07:22:23.292Z,66.85
2022-12-17T07:25:04.324Z,64.90
2022-12-17T07:27:53.424Z,63.70
2022-12-17T07:30:33.671Z,99.68
2022-12-17T07:35:53.926Z,79.15
2022-12-17T07:38:34.007Z,77.10
2022-12-17T07:41:14.267Z,76.00
2022-12-17T07:43:54.518Z,77.15
2022-12-17T07:46:50.531Z,82.10
2022-12-17T07:49:34.814Z,83.50
2022-12-17T07:52:14.981Z,85.53
2022-12-17T07:55:05.453Z,82.88
2022-12-17T07:57:45.568Z,79.20
2022-12-17T08:00:35.332Z,71.03
2022-12-17T08:03:15.817Z,73.65
2022-12-17T08:06:00.668Z,75.47
2022-12-17T08:08:46.603Z,76.60
2022-12-17T08:11:26.047Z,84.63
2022-12-17T08:14:06.243Z,86.93
2022-12-17T08:16:46.433Z,85.53
2022-12-17T08:19:26.570Z,75.82
2022-12-17T08:22:16.687Z,78.53
2022-12-17T08:24:56.941Z,72.63
2022-12-17T08:27:37.030Z,72.78
2022-12-17T08:30:17.195Z,72.43
2022-12-17T08:32:57.380Z,75.32
2022-12-17T08:35:37.611Z,77.60
2022-12-17T08:38:27.637Z,79.35
2022-12-17T08:41:08.015Z,71.38
2022-12-17T08:46:28.980Z,66.32
2022-12-17T08:49:18.300Z,70.82
2022-12-17T08:51:59.319Z,69.18
2022-12-17T08:54:38.636Z,69.80
2022-12-17T08:57:30.838Z,67.88
2022-12-17T09:00:19.041Z,70.20
2022-12-17T09:02:59.927Z,67.20
2022-12-17T09:05:49.291Z,67.47
2022-12-17T09:08:29.531Z,64.45
2022-12-17T09:13:59.998Z,58.35
2022-12-17T09:19:30.844Z,56.80
2022-12-17T09:22:10.331Z,54.60
2022-12-17T09:24:50.520Z,53.50
2022-12-17T09:27:30.673Z,54.38
2022-12-17T09:30:10.988Z,54.70
2022-12-17T09:35:31.266Z,57.65
2022-12-17T09:41:01.581Z,59.08
2022-12-17T09:44:11.635Z,59.35
2022-12-17T09:47:21.942Z,57.92
2022-12-17T09:50:01.982Z,54.60
2022-12-17T09:52:52.260Z,55.13
2022-12-17T09:55:42.324Z,57.20
2022-12-17T09:58:42.603Z,55.58
2022-12-17T10:01:42.929Z,52.42
2022-12-17T10:07:23.059Z,58.30
2022-12-17T10:10:13.279Z,53.92
2022-12-17T10:12:53.406Z,53.92
2022-12-17T10:15:40.038Z,52.30
2022-12-17T10:18:23.770Z,50.13
2022-12-17T10:21:24.250Z,50.13
2022-12-17T10:26:54.435Z,50.45
2022-12-17T10:32:44.614Z,49.38
2022-12-17T10:35:44.925Z,48.13
2022-12-17T10:38:35.029Z,45.90
2022-12-17T10:41:15.099Z,45.72
2022-12-17T10:43:56.283Z,45.28
2022-12-17T10:46:45.557Z,41.63
2022-12-17T10:49:35.821Z,45.90
2022-12-17T10:52:35.836Z,46.10
2022-12-17T10:55:26.762Z,45.22
2022-12-17T10:58:06.262Z,49.28
2022-12-17T11:00:56.329Z,50.20
2022-12-17T11:04:06.536Z,51.08
2022-12-17T11:07:00.730Z,51.08
2022-12-17T11:10:09.460Z,51.47
2022-12-17T11:13:17.169Z,51.03
2022-12-17T11:16:07.294Z,52.53
2022-12-17T11:19:19.532Z,54.35
2022-12-17T11:22:07.558Z,54.85
2022-12-17T11:25:20.951Z,55.53
2022-12-17T11:28:17.972Z,60.58
2022-12-17T11:31:18.154Z,57.95
2022-12-17T11:34:08.257Z,55.97
2022-12-17T11:37:09.213Z,65.22
2022-12-17T11:40:08.677Z,68.25
2022-12-17T11:43:08.918Z,67.68
2022-12-17T11:46:09.096Z,69.20
2022-12-17T11:48:59.337Z,69.40
2022-12-17T11:51:59.426Z,76.43
2022-12-17T11:55:09.554Z,81.05
2022-12-17T11:58:19.774Z,84.25
2022-12-17T12:01:30.083Z,85.15
2022-12-17T12:04:30.071Z,83.47
2022-12-17T12:07:40.280Z,82.68
2022-12-17T12:10:40.518Z,86.00
2022-12-17T12:13:40.667Z,81.95
2022-12-17T12:16:50.969Z,82.38
2022-12-17T12:19:41.615Z,83.93
2022-12-17T12:25:41.387Z,82.88
2022-12-17T12:28:51.556Z,84.30
2022-12-17T12:32:01.866Z,84.65
2022-12-17T12:34:52.120Z,85.38
2022-12-17T12:37:43.385Z,85.35
2022-12-17T12:41:02.259Z,81.30
2022-12-17T12:43:52.688Z,86.70
2022-12-17T12:46:52.615Z,85.07
2022-12-17T12:49:52.854Z,87.15
2022-12-17T12:52:42.944Z,82.47
2022-12-17T12:55:23.212Z,88.07
2022-12-17T12:58:23.351Z,90.72
2022-12-17T13:01:13.745Z,94.78
2022-12-17T13:04:13.749Z,91.13
2022-12-17T13:06:57.281Z,87.20
2022-12-17T13:09:39.287Z,90.72
2022-12-17T13:12:43.981Z,90.90
2022-12-17T13:15:31.669Z,90.88
2022-12-17T13:18:24.189Z,91.13
2022-12-17T13:21:04.755Z,88.80
2022-12-17T13:26:32.173Z,91.63
2022-12-17T13:29:05.940Z,86.30
2022-12-17T13:31:50.050Z,93.22
2022-12-17T13:34:47.913Z,93.80
2022-12-17T13:37:47.569Z,94.78
2022-12-17T13:40:36.566Z,93.35
2022-12-17T13:43:06.479Z,92.50
2022-12-17T13:45:40.762Z,91.85
2022-12-17T13:48:23.491Z,89.07
2022-12-17T13:51:02.575Z,87.53
2022-12-17T13:53:37.491Z,89.53
2022-12-17T13:56:07.543Z,91.72
2022-12-17T13:58:38.359Z,95.07
2022-12-17T14:01:11.433Z,91.93
2022-12-17T14:04:05.176Z,91.20
2022-12-17T14:06:40.137Z,96.00
2022-12-17T14:09:15.981Z,91.07
2022-12-17T14:11:58.739Z,96.35
2022-12-17T14:14:36.593Z,94.40
2022-12-17T14:17:07.296Z,96.65
2022-12-17T14:19:38.816Z,101.97
2022-12-17T14:22:08.913Z,97.97
2022-12-17T14:24:38.922Z,95.82
2022-12-17T14:27:24.413Z,102.05
2022-12-17T14:29:54.335Z,95.63
2022-12-17T14:32:40.722Z,95.18
2022-12-17T14:35:41.703Z,95.10
2022-12-17T14:38:37.612Z,96.57
2022-12-17T14:41:29.529Z,93.35
2022-12-17T14:44:01.953Z,97.25
2022-12-17T14:46:33.839Z,97.05
2022-12-17T14:49:07.464Z,99.90
2022-12-17T14:51:45.370Z,95.20
2022-12-17T14:54:23.668Z,93.95
2022-12-17T14:56:54.802Z,91.63
2022-12-17T14:59:42.778Z,96.50
2022-12-17T15:02:29.855Z,96.15
2022-12-17T15:05:03.924Z,96.20
2022-12-17T15:07:35.194Z,96.22
2022-12-17T15:10:13.269Z,92.03
2022-12-17T15:12:45.462Z,97.18
2022-12-17T15:15:16.880Z,96.18
2022-12-17T15:17:46.773Z,103.55
2022-12-17T15:20:23.877Z,107.35
2022-12-17T15:22:53.732Z,106.18
2022-12-17T15:25:23.557Z,105.95
2022-12-17T15:27:53.884Z,102.80
2022-12-17T15:30:23.925Z,99.85
2022-12-17T15:32:53.757Z,95.07
2022-12-17T15:37:53.590Z,92.57
2022-12-17T15:40:24.365Z,91.78
2022-12-17T15:43:13.365Z,93.30
2022-12-17T15:45:50.192Z,101.78
2022-12-17T15:48:23.192Z,105.40
2022-12-17T15:50:53.029Z,103.03
2022-12-17T15:53:22.828Z,103.13
2022-12-17T15:55:52.749Z,100.82
2022-12-17T15:58:23.003Z,108.15
2022-12-17T16:00:52.791Z,109.15
2022-12-17T16:03:22.796Z,105.00
2022-12-17T16:05:52.714Z,100.45
2022-12-17T16:08:22.621Z,107.65
2022-12-17T16:10:54.974Z,93.70
2022-12-17T16:13:24.753Z,94.47
2022-12-17T16:16:04.221Z,94.00
2022-12-17T16:18:35.177Z,88.95
2022-12-17T16:21:08.583Z,96.55
2022-12-17T16:23:39.031Z,87.80
2022-12-17T16:26:11.731Z,90.70
2022-12-17T16:28:42.158Z,88.43
2022-12-17T16:31:18.151Z,87.55
2022-12-17T16:33:49.764Z,88.43
2022-12-17T16:36:23.291Z,88.18
2022-12-17T16:38:55.695Z,86.72
2022-12-17T16:41:25.785Z,82.10
2022-12-17T16:43:55.584Z,84.88
2022-12-17T16:46:32.802Z,86.60
2022-12-17T16:49:07.987Z,89.22
2022-12-17T16:51:37.948Z,93.43
2022-12-17T16:54:13.316Z,94.82
2022-12-17T16:56:45.510Z,99.20
2022-12-17T16:59:17.252Z,99.72
2022-12-17T17:01:49.429Z,100.90
2022-12-17T17:04:22.107Z,104.00
2022-12-17T17:06:54.749Z,102.55
2022-12-17T17:09:25.974Z,104.18
2022-12-17T17:11:58.847Z,103.65
2022-12-17T17:14:29.439Z,94.95
2022-12-17T17:16:59.423Z,91.40
2022-12-17T17:19:29.357Z,94.72
2022-12-17T17:21:59.527Z,94.05
2022-12-17T17:24:30.722Z,90.95
2022-12-17T17:27:01.620Z,95.28
2022-12-17T17:29:31.874Z,92.50
2022-12-17T17:32:10.507Z,97.47
2022-12-17T17:34:42.417Z,100.20
2022-12-17T17:37:14.620Z,104.45
2022-12-17T17:39:44.704Z,113.57
2022-12-17T17:42:14.471Z,115.28
2022-12-17T17:44:44.245Z,134.02
2022-12-17T17:47:14.442Z,147.02
2022-12-17T17:49:44.429Z,179.13
2022-12-17T17:52:14.416Z,181.45
2022-12-17T17:54:44.293Z,174.13
2022-12-17T17:57:15.074Z,183.50
2022-12-17T17:59:44.825Z,185.20
2022-12-17T18:02:14.903Z,194.00
2022-12-17T18:04:44.863Z,188.32
2022-12-17T18:07:29.795Z,195.55
2022-12-17T18:10:01.319Z,197.82
2022-12-17T18:12:42.044Z,191.27
2022-12-17T18:17:49.425Z,175.63
2022-12-17T18:20:19.922Z,161.43
2022-12-17T18:22:50.033Z,164.52
2022-12-17T18:25:20.042Z,151.75
2022-12-17T18:27:49.927Z,156.43
2022-12-17T18:30:19.810Z,156.65
2022-12-17T18:32:53.463Z,152.63
2022-12-17T18:35:23.257Z,149.95
2022-12-17T18:37:53.128Z,149.57
2022-12-17T18:40:22.895Z,152.25
2022-12-17T18:43:03.929Z,142.23
2022-12-17T18:45:33.846Z,140.80
2022-12-17T18:48:03.640Z,150.95
2022-12-17T18:50:33.607Z,145.15
2022-12-17T18:53:03.387Z,143.07
2022-12-17T18:55:33.115Z,139.60
2022-12-17T18:58:03.371Z,143.60
2022-12-17T19:00:33.222Z,136.70
2022-12-17T19:03:05.952Z,130.60
2022-12-17T19:05:37.030Z,127.88
2022-12-17T19:08:08.399Z,138.63
2022-12-17T19:10:39.270Z,141.75
2022-12-17T19:13:09.208Z,144.50
2022-12-17T19:15:39.204Z,147.70
2022-12-17T19:18:08.933Z,146.93
2022-12-17T19:20:38.778Z,162.90
2022-12-17T19:23:08.547Z,145.90
2022-12-17T19:25:38.339Z,146.00
2022-12-17T19:28:08.202Z,143.90
2022-12-17T19:30:38.893Z,141.93
2022-12-17T19:35:40.421Z,135.65
2022-12-17T19:38:10.213Z,143.23
2022-12-17T19:40:40.026Z,138.27
2022-12-17T19:43:09.862Z,141.30
2022-12-17T19:45:39.680Z,143.63
2022-12-17T19:48:10.402Z,149.52
2022-12-17T19:53:09.473Z,140.88
2022-12-17T19:55:39.384Z,147.98
2022-12-17T19:58:09.153Z,150.98
2022-12-17T20:00:38.912Z,147.88
2022-12-17T20:03:08.833Z,149.60
2022-12-17T20:05:38.655Z,149.93
2022-12-17T20:08:08.762Z,153.93
2022-12-17T20:10:38.560Z,150.15
2022-12-17T20:13:08.419Z,149.27
2022-12-17T20:15:38.221Z,150.68
2022-12-17T20:18:08.186Z,155.32
2022-12-17T20:20:37.905Z,146.02
2022-12-17T20:23:07.707Z,151.70
2022-12-17T20:25:37.646Z,154.18
2022-12-17T20:28:07.501Z,153.93
2022-12-17T20:30:37.325Z,158.68
2022-12-17T20:33:07.044Z,160.38
2022-12-17T20:35:40.841Z,160.53
2022-12-17T20:38:10.851Z,163.52
2022-12-17T20:40:43.227Z,163.90
2022-12-17T20:43:13.216Z,164.75
2022-12-17T20:45:51.969Z,169.00
2022-12-17T20:48:22.359Z,178.02
2022-12-17T20:50:52.259Z,171.75
2022-12-17T20:53:22.155Z,170.27
2022-12-17T20:56:02.704Z,172.48
2022-12-17T20:58:32.557Z,168.98
2022-12-17T21:01:15.344Z,167.27
2022-12-17T21:03:45.641Z,162.40
2022-12-17T21:06:22.886Z,161.05
2022-12-17T21:08:54.565Z,157.10
2022-12-17T21:11:27.612Z,157.27
2022-12-17T21:13:58.023Z,160.45
2022-12-17T21:16:31.544Z,152.77
2022-12-17T21:19:02.696Z,155.80
2022-12-17T21:21:35.589Z,156.88
2022-12-17T21:24:06.280Z,151.93
2022-12-17T21:29:08.765Z,159.98
2022-12-17T21:31:42.621Z,156.10
2022-12-17T21:34:18.734Z,153.27
2022-12-17T21:36:49.322Z,155.57
2022-12-17T21:39:19.816Z,159.80
2022-12-17T21:42:10.624Z,155.65
2022-12-17T21:47:09.820Z,155.93
2022-12-17T21:49:39.710Z,149.07
2022-12-17T21:52:11.001Z,159.80
2022-12-17T21:54:41.250Z,157.98
2022-12-17T21:57:11.026Z,161.10
2022-12-17T21:59:40.779Z,161.75
2022-12-17T22:02:13.044Z,165.60
2022-12-17T22:04:43.025Z,167.52
2022-12-17T22:07:16.373Z,175.20
2022-12-17T22:10:12.593Z,164.70
2022-12-17T22:12:56.418Z,179.30
2022-12-17T22:15:30.999Z,175.98
2022-12-17T22:18:06.232Z,200.37
2022-12-17T22:20:36.133Z,188.65
2022-12-17T22:23:06.967Z,202.70
2022-12-17T22:25:40.094Z,199.05
2022-12-17T22:28:09.970Z,201.35
2022-12-17T22:30:57.459Z,218.88
2022-12-17T22:34:05.674Z,212.30
2022-12-17T22:38:29.873Z,208.45
2022-12-17T22:41:30.030Z,212.27
2022-12-17T22:44:39.224Z,219.60
2022-12-17T22:45:11.925Z,226.95
2022-12-17T22:47:42.364Z,231.13
2022-12-17T22:50:13.266Z,222.93
2022-12-17T22:52:43.698Z,229.27
2022-12-17T22:55:14.061Z,221.15
2022-12-17T22:57:44.358Z,203.00
2022-12-17T23:00:19.406Z,197.87
2022-12-17T23:02:49.390Z,202.30
2022-12-17T23:05:19.295Z,210.65
2022-12-17T23:07:49.229Z,201.63
2022-12-17T23:10:19.700Z,202.73
2022-12-17T23:12:53.753Z,197.98
2022-12-17T23:15:32.063Z,204.32
2022-12-17T23:18:03.469Z,190.57
2022-12-17T23:20:34.909Z,191.27
2022-12-17T23:23:04.888Z,172.07
2022-12-17T23:25:34.750Z,180.25
2022-12-17T23:28:04.566Z,182.02
2022-12-17T23:30:35.235Z,184.95
2022-12-17T23:33:05.311Z,180.23
2022-12-17T23:35:35.235Z,190.88
2022-12-17T23:38:04.965Z,198.23
2022-12-17T23:40:34.776Z,188.77
2022-12-17T23:43:04.622Z,191.48
2022-12-17T23:45:34.420Z,191.20
2022-12-17T23:48:04.318Z,186.37
2022-12-17T23:50:34.262Z,187.73
2022-12-17T23:53:04.375Z,179.10
2022-12-17T23:55:35.201Z,182.85
2022-12-17T23:58:04.903Z,170.32
